Time;durP1;ratioP1;P1;durP2;ratioP2;P2;SDS_P1;SDS_P2;PMS_P1;PMS_P2;Temp;Humidity;BMP_temperature;BMP_pressure;BME280_temperature;BME280_humidity;BME280_pressure;Samples;Min_cycle;Max_cycle;Signal;HPM_P1;HPM_P2
2023/03/22 00:00:26;;;;;;;0.60;0.60;;;10.60;99.90;;;;;;5054923;28;20439;-82
2023/03/22 00:02:53;;;;;;;1.20;0.63;;;10.60;99.90;;;;;;5055097;28;20461;-82
2023/03/22 00:05:19;;;;;;;0.70;0.70;;;10.60;99.90;;;;;;5054473;28;20973;-82
2023/03/22 00:07:48;;;;;;;0.67;0.60;;;10.60;99.90;;;;;;5054800;28;20443;-82
2023/03/22 00:10:16;;;;;;;0.80;0.80;;;10.60;99.90;;;;;;5054921;28;20502;-82
2023/03/22 00:12:43;;;;;;;0.50;0.50;;;10.60;99.90;;;;;;5054628;28;20443;-82
2023/03/22 00:15:11;;;;;;;0.50;0.40;;;10.50;99.90;;;;;;5054303;28;20454;-82
2023/03/22 00:17:40;;;;;;;0.70;0.60;;;10.40;99.90;;;;;;5054486;28;20446;-82
2023/03/22 00:20:08;;;;;;;1.13;0.70;;;10.40;99.90;;;;;;5054471;28;20477;-82
2023/03/22 00:22:35;;;;;;;0.60;0.60;;;10.30;99.90;;;;;;5054450;28;20825;-82
2023/03/22 00:25:02;;;;;;;0.80;0.70;;;10.20;99.90;;;;;;5054266;28;20439;-82
2023/03/22 00:27:29;;;;;;;0.67;0.60;;;10.10;99.90;;;;;;5054680;28;20449;-82
2023/03/22 00:29:56;;;;;;;0.70;0.60;;;10.10;99.90;;;;;;5054299;28;20505;-82
2023/03/22 00:32:25;;;;;;;3.80;0.50;;;10.00;99.90;;;;;;5054007;28;20458;-82
2023/03/22 00:34:53;;;;;;;1.90;0.63;;;10.00;99.90;;;;;;5054329;28;20801;-82
2023/03/22 00:37:20;;;;;;;0.90;0.50;;;10.00;99.90;;;;;;5054155;28;20625;-82
2023/03/22 00:39:47;;;;;;;0.80;0.80;;;10.00;99.90;;;;;;5053776;28;20487;-82
2023/03/22 00:42:13;;;;;;;0.73;0.60;;;10.00;99.90;;;;;;5054141;28;20525;-82
2023/03/22 00:44:40;;;;;;;0.60;0.50;;;10.00;99.90;;;;;;5053830;28;20430;-82
2023/03/22 00:47:07;;;;;;;0.90;0.60;;;9.90;99.90;;;;;;5053713;28;20435;-82
2023/03/22 00:49:34;;;;;;;2.30;0.47;;;9.90;99.90;;;;;;5053593;28;20486;-82
2023/03/22 00:52:02;;;;;;;0.50;0.50;;;9.90;99.90;;;;;;5053904;28;20447;-82
2023/03/22 00:54:29;;;;;;;0.50;0.50;;;9.90;99.90;;;;;;5053565;28;20981;-82
2023/03/22 00:56:55;;;;;;;0.50;0.50;;;9.90;99.90;;;;;;5054083;28;20512;-82
2023/03/22 00:59:22;;;;;;;0.40;0.40;;;9.90;99.90;;;;;;5053595;28;21009;-82
2023/03/22 01:01:49;;;;;;;0.40;0.40;;;9.90;99.90;;;;;;5053919;28;20451;-82
2023/03/22 01:04:24;;;;;;;2.10;0.60;;;9.90;99.90;;;;;;5053410;28;21013;-82
2023/03/22 01:06:57;;;;;;;0.40;0.40;;;9.80;99.90;;;;;;5053670;28;20448;-82
2023/03/22 01:09:27;;;;;;;0.50;0.50;;;9.80;99.90;;;;;;5053553;28;20834;-82
2023/03/22 01:11:55;;;;;;;1.77;0.53;;;9.80;99.90;;;;;;5053588;28;20461;-82
2023/03/22 01:14:22;;;;;;;1.03;0.90;;;9.70;99.90;;;;;;5053588;28;20454;-82
2023/03/22 01:16:49;;;;;;;2.40;0.83;;;9.70;99.90;;;;;;5053756;28;20450;-82
2023/03/22 01:19:16;;;;;;;1.37;0.73;;;9.70;99.90;;;;;;5053211;28;20486;-82
2023/03/22 01:21:42;;;;;;;0.47;0.47;;;9.60;99.90;;;;;;5053429;28;20454;-82
2023/03/22 01:24:09;;;;;;;0.60;0.60;;;9.60;99.90;;;;;;5053158;28;20446;-82
2023/03/22 01:26:37;;;;;;;1.33;0.57;;;9.60;99.90;;;;;;5053436;28;20453;-82
2023/03/22 01:29:05;;;;;;;0.70;0.50;;;9.60;99.90;;;;;;5052965;28;20974;-82
2023/03/22 01:31:31;;;;;;;0.60;0.60;;;9.50;99.90;;;;;;5053334;28;20438;-82
2023/03/22 01:33:58;;;;;;;0.50;0.50;;;9.50;99.90;;;;;;5053365;28;20458;-82
2023/03/22 01:36:25;;;;;;;0.73;0.60;;;9.40;99.90;;;;;;5053294;28;20450;-82
2023/03/22 01:38:52;;;;;;;0.40;0.40;;;9.40;99.90;;;;;;5053017;28;20497;-82
2023/03/22 01:41:19;;;;;;;1.37;0.90;;;9.30;99.90;;;;;;5052987;28;20430;-82
2023/03/22 01:44:09;;;;;;;0.50;0.50;;;9.20;99.90;;;;;;5053225;28;20450;-82
2023/03/22 01:46:36;;;;;;;0.60;0.60;;;9.20;99.90;;;;;;5052961;28;20450;-82
2023/03/22 01:49:04;;;;;;;1.97;0.90;;;9.10;99.90;;;;;;5053067;28;20477;-82
2023/03/22 01:51:31;;;;;;;2.20;0.60;;;9.10;99.90;;;;;;5053145;28;20472;-82
2023/03/22 01:54:02;;;;;;;0.53;0.47;;;9.10;99.90;;;;;;5052879;28;20445;-82
2023/03/22 01:56:34;;;;;;;0.50;0.40;;;9.10;99.90;;;;;;5053128;28;20435;-82
2023/03/22 01:59:02;;;;;;;2.80;0.60;;;9.00;99.90;;;;;;5052660;28;20860;-82
2023/03/22 02:01:31;;;;;;;1.13;1.03;;;8.90;99.90;;;;;;5052747;28;20791;-81
2023/03/22 02:04:02;;;;;;;0.80;0.80;;;8.90;99.90;;;;;;5052782;28;20450;-82
2023/03/22 02:06:31;;;;;;;0.40;0.40;;;8.90;99.90;;;;;;5052829;28;20898;-82
2023/03/22 02:08:58;;;;;;;0.90;0.70;;;8.90;99.90;;;;;;5053141;28;20532;-82
2023/03/22 02:11:30;;;;;;;0.80;0.63;;;8.80;99.90;;;;;;5052692;28;20473;-82
2023/03/22 02:14:25;;;;;;;0.83;0.83;;;8.90;99.90;;;;;;5053042;28;20435;-82
2023/03/22 02:17:05;;;;;;;0.60;0.50;;;8.90;99.90;;;;;;5050980;28;20461;-82
2023/03/22 02:20:06;;;;;;;0.40;0.40;;;8.90;99.90;;;;;;5052817;28;20478;-82
2023/03/22 02:23:06;;;;;;;1.17;0.50;;;8.90;99.90;;;;;;5052577;28;20921;-82
2023/03/22 02:25:58;;;;;;;1.37;0.80;;;8.90;99.90;;;;;;5052574;28;20438;-82
2023/03/22 02:28:34;;;;;;;0.90;0.83;;;8.90;99.90;;;;;;5052753;28;20471;-82
2023/03/22 02:31:19;;;;;;;0.60;0.47;;;8.90;99.90;;;;;;5052801;28;20435;-82
2023/03/22 02:34:14;;;;;;;0.57;0.57;;;8.90;99.90;;;;;;5053060;28;20437;-82
2023/03/22 02:37:23;;;;;;;0.40;0.40;;;8.80;99.90;;;;;;5053205;28;20863;-82
2023/03/22 02:39:55;;;;;;;2.40;0.60;;;8.80;99.90;;;;;;5052615;28;20489;-82
2023/03/22 02:42:32;;;;;;;0.57;0.57;;;8.80;99.90;;;;;;5052458;28;20817;-82
2023/03/22 02:45:03;;;;;;;3.40;0.80;;;8.90;99.90;;;;;;5052697;28;20438;-82
2023/03/22 02:47:40;;;;;;;0.67;0.67;;;8.70;99.90;;;;;;5052961;28;20430;-82
2023/03/22 02:50:12;;;;;;;1.23;0.90;;;8.70;99.90;;;;;;5054543;28;20484;-82
2023/03/22 02:52:41;;;;;;;0.50;0.50;;;8.70;99.90;;;;;;5056951;28;20802;-82
2023/03/22 02:55:15;;;;;;;0.57;0.57;;;8.70;99.90;;;;;;5055930;28;20949;-82
2023/03/22 02:57:47;;;;;;;0.60;0.60;;;8.70;99.90;;;;;;5056150;28;20443;-82
2023/03/22 03:00:17;;;;;;;0.77;0.77;;;8.70;99.90;;;;;;5055621;28;21005;-81
2023/03/22 03:02:48;;;;;;;1.70;1.20;;;8.70;99.90;;;;;;5055915;28;20489;-82
2023/03/22 03:05:17;;;;;;;0.50;0.50;;;8.70;99.90;;;;;;5056030;28;20415;-82
2023/03/22 03:07:47;;;;;;;0.90;0.70;;;8.70;99.90;;;;;;5055897;28;20454;-82
2023/03/22 03:10:17;;;;;;;1.27;0.93;;;8.70;99.90;;;;;;5055687;28;20849;-82
2023/03/22 03:12:44;;;;;;;1.60;0.93;;;8.70;99.90;;;;;;5055532;28;20942;-82
2023/03/22 03:15:15;;;;;;;0.60;0.60;;;8.70;99.90;;;;;;5055749;28;20509;-82
2023/03/22 03:17:57;;;;;;;0.50;0.50;;;8.70;99.90;;;;;;5055788;28;20829;-82
2023/03/22 03:20:29;;;;;;;1.63;0.80;;;8.70;99.90;;;;;;5055603;28;20472;-82
2023/03/22 03:23:13;;;;;;;0.90;0.90;;;8.70;99.90;;;;;;5055869;28;20431;-82
2023/03/22 03:25:47;;;;;;;0.53;0.50;;;8.70;99.90;;;;;;5055631;28;20437;-82
2023/03/22 03:28:29;;;;;;;0.80;0.80;;;8.70;99.90;;;;;;5055474;28;20461;-81
2023/03/22 03:31:03;;;;;;;0.60;0.60;;;8.70;99.90;;;;;;5055468;28;20478;-82
2023/03/22 03:33:34;;;;;;;0.57;0.40;;;8.60;99.90;;;;;;5055301;28;20430;-82
2023/03/22 03:36:05;;;;;;;0.80;0.60;;;8.60;99.90;;;;;;5055418;28;20435;-82
2023/03/22 03:38:36;;;;;;;1.00;0.37;;;8.60;99.90;;;;;;5054917;28;20997;-82
2023/03/22 03:41:09;;;;;;;2.07;0.83;;;8.60;99.90;;;;;;5055375;28;20430;-82
2023/03/22 03:43:36;;;;;;;0.40;0.40;;;8.60;99.90;;;;;;5055282;28;20856;-82
2023/03/22 03:46:03;;;;;;;0.50;0.50;;;8.60;99.90;;;;;;5055179;28;20841;-82
2023/03/22 03:48:33;;;;;;;1.17;0.67;;;8.60;99.90;;;;;;5054647;28;20993;-82
2023/03/22 03:51:01;;;;;;;0.80;0.50;;;8.50;99.90;;;;;;5055132;28;20431;-82
2023/03/22 03:53:29;;;;;;;0.50;0.50;;;8.50;99.90;;;;;;5055061;28;20443;-82
2023/03/22 03:55:55;;;;;;;0.80;0.60;;;8.50;99.90;;;;;;5055039;28;20454;-82
2023/03/22 03:58:24;;;;;;;2.83;0.60;;;8.50;99.90;;;;;;5054930;28;20462;-82
2023/03/22 04:00:51;;;;;;;1.90;0.40;;;8.50;99.90;;;;;;5053504;28;21004;-82
2023/03/22 04:03:17;;;;;;;0.93;0.70;;;8.50;99.90;;;;;;5055159;28;20458;-82
2023/03/22 04:05:45;;;;;;;0.90;0.53;;;8.40;99.90;;;;;;5055098;28;20457;-82
2023/03/22 04:08:11;;;;;;;0.50;0.50;;;8.40;99.90;;;;;;5054715;28;20446;-82
2023/03/22 04:10:38;;;;;;;1.63;0.80;;;8.40;99.90;;;;;;5054751;28;20450;-82
2023/03/22 04:13:05;;;;;;;0.50;0.40;;;8.30;99.90;;;;;;5054389;28;20836;-82
2023/03/22 04:15:33;;;;;;;1.27;0.70;;;8.30;99.90;;;;;;5054649;28;20865;-82
2023/03/22 04:18:00;;;;;;;0.60;0.60;;;8.20;99.90;;;;;;5054666;28;20446;-81
2023/03/22 04:20:28;;;;;;;1.87;0.60;;;8.20;99.90;;;;;;5054196;28;20501;-82
2023/03/22 04:22:56;;;;;;;0.57;0.57;;;8.20;99.90;;;;;;5054641;28;20443;-82
2023/03/22 04:25:29;;;;;;;0.40;0.33;;;8.20;99.90;;;;;;5054401;28;20443;-82
2023/03/22 04:27:56;;;;;;;1.00;0.90;;;8.20;99.90;;;;;;5054352;28;20431;-82
2023/03/22 04:30:23;;;;;;;5.50;1.77;;;8.10;99.90;;;;;;5054556;28;20446;-82
2023/03/22 04:32:51;;;;;;;0.70;0.70;;;8.10;99.90;;;;;;5054274;28;20537;-82
2023/03/22 04:35:18;;;;;;;1.17;0.70;;;8.10;99.90;;;;;;5054259;28;20446;-82
2023/03/22 04:37:45;;;;;;;1.50;0.90;;;8.10;99.90;;;;;;5054925;28;20454;-82
2023/03/22 04:40:15;;;;;;;0.40;0.37;;;8.10;99.90;;;;;;5053997;28;20894;-82
2023/03/22 04:42:43;;;;;;;8.00;0.80;;;8.00;99.90;;;;;;5054404;28;20964;-82
2023/03/22 04:45:10;;;;;;;0.70;0.43;;;8.00;99.90;;;;;;5053830;28;20438;-82
2023/03/22 04:47:37;;;;;;;0.60;0.60;;;8.00;99.90;;;;;;5053690;28;20448;-82
2023/03/22 04:50:07;;;;;;;0.43;0.40;;;8.00;99.90;;;;;;5053722;28;20505;-82
2023/03/22 04:52:34;;;;;;;0.40;0.37;;;8.00;99.90;;;;;;5053938;28;20449;-82
2023/03/22 04:55:00;;;;;;;0.37;0.37;;;7.90;99.90;;;;;;5054344;28;20478;-82
2023/03/22 04:57:27;;;;;;;4.50;0.60;;;7.90;99.90;;;;;;5053831;28;20455;-81
2023/03/22 04:59:54;;;;;;;0.70;0.70;;;7.90;99.90;;;;;;5057403;28;20485;-82
2023/03/22 05:02:21;;;;;;;0.90;0.57;;;7.90;99.90;;;;;;5073887;28;20464;-82
2023/03/22 05:04:48;;;;;;;0.40;0.40;;;7.90;99.90;;;;;;5073745;28;20449;-82
2023/03/22 05:07:16;;;;;;;0.40;0.40;;;7.90;99.90;;;;;;5073417;28;20460;-82
2023/03/22 05:09:42;;;;;;;0.53;0.53;;;7.90;99.90;;;;;;5073565;28;20481;-82
2023/03/22 05:12:09;;;;;;;0.40;0.40;;;8.00;99.90;;;;;;5073294;28;20449;-82
2023/03/22 05:14:36;;;;;;;0.70;0.37;;;8.00;99.90;;;;;;5073618;28;20495;-82
2023/03/22 05:17:03;;;;;;;0.80;0.60;;;7.90;99.90;;;;;;5073527;28;20450;-82
2023/03/22 05:19:30;;;;;;;0.80;0.40;;;7.90;99.90;;;;;;5073511;28;20477;-82
2023/03/22 05:22:00;;;;;;;0.50;0.50;;;8.00;99.90;;;;;;5073535;28;20461;-82
2023/03/22 05:24:28;;;;;;;0.50;0.50;;;8.00;99.90;;;;;;5073120;28;20909;-82
2023/03/22 05:26:55;;;;;;;0.53;0.53;;;8.00;99.90;;;;;;5073715;28;20448;-82
2023/03/22 05:29:23;;;;;;;1.03;0.77;;;8.00;99.90;;;;;;5073086;28;20977;-82
2023/03/22 05:31:49;;;;;;;0.40;0.40;;;8.10;99.90;;;;;;5073088;28;20964;-82
2023/03/22 05:34:16;;;;;;;1.17;0.70;;;8.10;99.90;;;;;;5073341;28;20453;-82
2023/03/22 05:36:43;;;;;;;0.80;0.40;;;8.00;99.90;;;;;;5073341;28;20980;-82
2023/03/22 05:39:10;;;;;;;0.70;0.47;;;8.00;99.90;;;;;;5072891;28;21024;-82
2023/03/22 05:41:38;;;;;;;0.50;0.40;;;8.00;99.90;;;;;;5073302;28;20460;-82
2023/03/22 05:44:05;;;;;;;0.40;0.33;;;8.00;99.90;;;;;;5073560;28;20449;-82
2023/03/22 05:46:31;;;;;;;0.50;0.50;;;8.00;99.90;;;;;;5072986;28;20516;-82
2023/03/22 05:48:58;;;;;;;2.40;0.50;;;8.00;99.90;;;;;;5072985;28;20489;-82
2023/03/22 05:51:26;;;;;;;0.97;0.50;;;8.10;99.90;;;;;;5073559;28;20426;-82
2023/03/22 05:53:53;;;;;;;1.60;0.40;;;8.10;99.90;;;;;;5073182;28;20500;-82
2023/03/22 05:56:23;;;;;;;1.23;0.73;;;8.20;99.90;;;;;;5073164;28;20452;-82
2023/03/22 05:58:51;;;;;;;0.50;0.50;;;8.20;99.90;;;;;;5072765;28;20984;-82
2023/03/22 06:01:19;;;;;;;0.40;0.40;;;8.10;99.90;;;;;;5073077;28;20512;-82
2023/03/22 06:03:47;;;;;;;0.60;0.60;;;8.20;99.90;;;;;;5073099;28;20445;-82
2023/03/22 06:06:14;;;;;;;1.40;0.47;;;8.20;99.90;;;;;;5073035;28;20461;-82
2023/03/22 06:08:41;;;;;;;0.70;0.60;;;8.20;99.90;;;;;;5072966;28;20505;-82
2023/03/22 06:11:08;;;;;;;0.57;0.57;;;8.20;99.90;;;;;;5073012;28;20450;-82
2023/03/22 06:13:36;;;;;;;0.80;0.60;;;8.30;99.90;;;;;;5072750;28;20429;-82
2023/03/22 06:16:05;;;;;;;0.70;0.60;;;8.30;99.90;;;;;;5072904;28;20459;-82
2023/03/22 06:18:32;;;;;;;1.43;0.50;;;8.30;99.90;;;;;;5072581;28;20450;-82
2023/03/22 06:20:59;;;;;;;0.50;0.50;;;8.40;99.90;;;;;;5072886;28;20567;-82
2023/03/22 06:23:25;;;;;;;0.40;0.40;;;8.60;99.90;;;;;;5072909;28;20456;-82
2023/03/22 06:25:52;;;;;;;0.67;0.57;;;9.10;99.90;;;;;;5076556;28;20453;-82
2023/03/22 06:28:19;;;;;;;2.23;1.00;;;9.90;99.90;;;;;;5076505;28;20873;-82
2023/03/22 06:30:45;;;;;;;1.27;0.77;;;10.80;99.90;;;;;;5076595;28;20449;-82
2023/03/22 06:33:14;;;;;;;4.50;1.23;;;11.80;99.90;;;;;;5076786;28;20449;-82
2023/03/22 06:35:40;;;;;;;1.10;1.00;;;12.80;99.90;;;;;;5076359;28;20540;-82
2023/03/22 06:38:07;;;;;;;0.60;0.60;;;13.30;99.90;;;;;;5076414;28;20441;-82
2023/03/22 06:40:34;;;;;;;0.93;0.90;;;13.00;99.90;;;;;;5076343;28;20481;-82
2023/03/22 06:43:02;;;;;;;0.60;0.60;;;12.60;99.90;;;;;;5076079;28;20532;-82
2023/03/22 06:45:32;;;;;;;0.60;0.60;;;12.00;99.90;;;;;;5076373;28;20543;-82
2023/03/22 06:47:59;;;;;;;1.27;0.93;;;11.50;99.90;;;;;;5076496;28;20797;-82
2023/03/22 06:50:27;;;;;;;0.80;0.70;;;11.10;99.90;;;;;;5076025;28;20477;-82
2023/03/22 06:52:54;;;;;;;0.83;0.60;;;10.80;99.90;;;;;;5075993;28;20457;-82
2023/03/22 06:55:21;;;;;;;3.90;1.23;;;10.60;99.90;;;;;;5075854;28;20895;-82
2023/03/22 06:57:47;;;;;;;0.73;0.73;;;10.40;99.90;;;;;;5076156;28;20445;-82
2023/03/22 07:00:15;;;;;;;2.00;0.80;;;10.30;99.90;;;;;;5075657;28;21024;-82
2023/03/22 07:02:42;;;;;;;1.10;0.70;;;10.20;99.90;;;;;;5076030;28;20495;-82
2023/03/22 07:05:09;;;;;;;1.13;0.60;;;10.10;99.90;;;;;;5075843;28;20458;-82
2023/03/22 07:07:37;;;;;;;0.63;0.63;;;10.00;99.90;;;;;;5075981;28;20434;-82
2023/03/22 07:10:06;;;;;;;0.50;0.50;;;10.10;99.90;;;;;;5075576;28;20469;-82
2023/03/22 07:12:33;;;;;;;0.40;0.40;;;10.10;99.90;;;;;;5075619;28;20491;-82
2023/03/22 07:15:00;;;;;;;1.37;0.70;;;10.10;99.90;;;;;;5075828;28;20452;-82
2023/03/22 07:17:26;;;;;;;0.63;0.60;;;10.20;99.90;;;;;;5075798;28;20453;-82
2023/03/22 07:19:53;;;;;;;1.90;0.50;;;10.30;99.90;;;;;;5075619;28;20475;-82
2023/03/22 07:22:21;;;;;;;1.03;0.60;;;10.30;99.90;;;;;;5075394;28;20949;-82
2023/03/22 07:24:49;;;;;;;0.60;0.60;;;10.30;99.90;;;;;;5075363;28;20434;-82
2023/03/22 07:27:16;;;;;;;0.90;0.90;;;10.40;99.90;;;;;;5075542;28;20449;-82
2023/03/22 07:29:42;;;;;;;0.60;0.50;;;10.40;99.90;;;;;;5075166;28;20476;-82
2023/03/22 07:32:10;;;;;;;1.13;0.60;;;10.50;99.90;;;;;;5075493;28;20457;-82
2023/03/22 07:34:36;;;;;;;0.93;0.83;;;10.60;99.90;;;;;;5075219;28;20468;-82
2023/03/22 07:37:03;;;;;;;0.40;0.40;;;10.70;99.90;;;;;;5075535;28;20430;-83
2023/03/22 07:39:30;;;;;;;1.17;0.50;;;10.70;99.90;;;;;;5075371;28;20802;-82
2023/03/22 07:41:58;;;;;;;0.50;0.50;;;10.80;99.90;;;;;;5075286;28;20481;-82
2023/03/22 07:44:26;;;;;;;0.60;0.57;;;10.90;99.90;;;;;;5075294;28;20449;-82
2023/03/22 07:46:53;;;;;;;1.17;0.70;;;10.90;99.90;;;;;;5075243;28;20441;-82
2023/03/22 07:49:20;;;;;;;0.57;0.53;;;11.00;99.90;;;;;;5074844;28;20486;-83
2023/03/22 07:51:46;;;;;;;0.40;0.40;;;11.20;99.90;;;;;;5075095;28;20440;-82
2023/03/22 07:54:13;;;;;;;0.87;0.87;;;11.30;99.90;;;;;;5074805;28;20948;-82
2023/03/22 07:56:41;;;;;;;0.70;0.50;;;11.40;99.90;;;;;;5075119;28;20818;-82
2023/03/22 07:59:09;;;;;;;0.40;0.40;;;11.50;99.90;;;;;;5074592;28;20484;-82
2023/03/22 08:01:37;;;;;;;0.40;0.40;;;11.60;99.90;;;;;;5074842;28;20570;-82
2023/03/22 08:04:03;;;;;;;0.80;0.60;;;11.80;99.90;;;;;;5074875;28;20454;-82
2023/03/22 08:06:31;;;;;;;0.50;0.47;;;11.90;99.90;;;;;;5074852;28;20441;-82
2023/03/22 08:08:58;;;;;;;0.40;0.40;;;12.00;99.90;;;;;;5074602;28;20505;-82
2023/03/22 08:11:25;;;;;;;0.47;0.40;;;12.10;99.90;;;;;;5074429;28;20454;-82
2023/03/22 08:13:53;;;;;;;0.47;0.47;;;12.30;99.90;;;;;;5074471;28;20479;-82
2023/03/22 08:16:21;;;;;;;0.60;0.50;;;12.40;99.90;;;;;;5074628;28;20447;-82
2023/03/22 08:18:48;;;;;;;0.90;0.40;;;12.60;99.90;;;;;;5074549;28;20976;-82
2023/03/22 08:21:15;;;;;;;0.60;0.50;;;12.80;99.90;;;;;;5074208;28;20469;-82
2023/03/22 08:23:42;;;;;;;1.60;0.40;;;12.90;99.90;;;;;;5074705;28;20454;-82
2023/03/22 08:26:09;;;;;;;0.40;0.40;;;13.00;99.90;;;;;;5074424;28;20487;-82
2023/03/22 08:28:35;;;;;;;0.47;0.47;;;13.20;99.90;;;;;;5073988;28;20467;-82
2023/03/22 08:31:10;;;;;;;0.60;0.30;;;13.30;99.90;;;;;;5074354;28;20440;-82
2023/03/22 08:33:38;;;;;;;0.50;0.50;;;13.50;99.90;;;;;;5074380;28;20410;-82
2023/03/22 08:36:07;;;;;;;0.93;0.40;;;13.60;99.90;;;;;;5073921;28;21063;-82
2023/03/22 08:38:33;;;;;;;0.50;0.50;;;13.80;99.90;;;;;;5073815;28;20453;-82
2023/03/22 08:41:00;;;;;;;0.63;0.60;;;13.90;99.90;;;;;;5074062;28;20496;-83
2023/03/22 08:43:27;;;;;;;0.47;0.47;;;14.00;99.90;;;;;;5074023;28;20940;-82
2023/03/22 08:45:53;;;;;;;0.80;0.53;;;14.20;99.90;;;;;;5073806;28;20438;-83
2023/03/22 08:48:20;;;;;;;0.60;0.60;;;14.40;99.90;;;;;;5073915;28;20822;-83
2023/03/22 08:50:49;;;;;;;0.80;0.57;;;14.60;99.90;;;;;;5074245;28;20430;-83
2023/03/22 08:53:16;;;;;;;0.63;0.50;;;14.80;99.90;;;;;;5074263;28;20452;-83
2023/03/22 08:55:43;;;;;;;2.40;0.83;;;14.90;99.90;;;;;;5074526;28;20454;-83
2023/03/22 08:58:11;;;;;;;0.40;0.40;;;15.00;99.90;;;;;;5075342;28;20782;-83
2023/03/22 09:00:39;;;;;;;2.53;0.60;;;15.10;99.90;;;;;;5074574;28;20493;-83
2023/03/22 09:03:05;;;;;;;1.03;0.40;;;15.40;99.90;;;;;;5074598;28;20498;-85
2023/03/22 09:05:32;;;;;;;0.67;0.47;;;15.60;99.90;;;;;;5075254;28;20464;-84
2023/03/22 09:08:04;;;;;;;0.40;0.40;;;15.80;99.90;;;;;;5075553;28;20449;-85
2023/03/22 09:10:31;;;;;;;0.50;0.43;;;16.20;99.90;;;;;;5076491;28;20434;-84
2023/03/22 09:12:58;;;;;;;1.40;0.57;;;16.70;99.90;;;;;;5076300;28;20430;-84
2023/03/22 09:15:25;;;;;;;1.07;0.50;;;17.40;99.90;;;;;;5077405;28;20438;-84
2023/03/22 09:17:52;;;;;;;1.47;0.60;;;19.00;99.90;;;;;;5076756;28;20476;-85
2023/03/22 09:20:23;;;;;;;1.00;0.63;;;20.60;99.90;;;;;;5077687;28;20449;-85
2023/03/22 09:22:50;;;;;;;2.03;0.50;;;22.00;96.70;;;;;;5077536;28;20927;-85
2023/03/22 09:25:20;;;;;;;1.03;0.63;;;22.90;93.00;;;;;;5076900;28;20438;-85
2023/03/22 09:27:46;;;;;;;0.70;0.50;;;23.80;88.60;;;;;;5076554;28;20453;-85
2023/03/22 09:30:14;;;;;;;0.57;0.57;;;24.80;80.50;;;;;;5074866;28;20222;-85
2023/03/22 09:32:41;;;;;;;2.13;0.70;;;25.50;75.30;;;;;;5075538;28;20285;-85
2023/03/22 09:35:08;;;;;;;0.43;0.40;;;26.10;71.60;;;;;;5074876;28;20268;-85
2023/03/22 09:37:35;;;;;;;0.57;0.57;;;26.30;67.70;;;;;;5075437;28;20595;-84
2023/03/22 09:42:50;;;;;;;0.52;0.52;;;26.60;63.50;;;;;;5079305;28;20249;-85
2023/03/22 09:45:19;;;;;;;0.68;0.68;;;27.30;61.20;;;;;;5080084;28;20198;-84
2023/03/22 09:47:50;;;;;;;0.50;0.50;;;27.10;60.10;;;;;;5079676;28;20222;-84
2023/03/22 09:50:21;;;;;;;0.60;0.60;;;27.50;60.50;;;;;;5079825;28;20313;-85
2023/03/22 09:52:48;;;;;;;0.50;0.50;;;27.50;58.80;;;;;;5080801;28;20183;-84
2023/03/22 09:55:21;;;;;;;1.10;0.52;;;27.70;58.10;;;;;;5079182;28;20234;-85
2023/03/22 09:58:17;;;;;;;0.45;0.45;;;27.90;55.60;;;;;;5076969;28;20205;-85
2023/03/22 10:00:47;;;;;;;0.50;0.50;;;28.00;56.00;;;;;;5080071;28;20248;-85
2023/03/22 10:03:26;;;;;;;0.63;0.60;;;27.00;56.40;;;;;;5082374;28;20674;-85
2023/03/22 10:05:59;;;;;;;0.40;0.40;;;26.50;57.10;;;;;;5079505;28;20186;-85
2023/03/22 10:08:53;;;;;;;0.50;0.50;;;26.20;58.30;;;;;;5079520;28;20225;-84
2023/03/22 10:11:36;;;;;;;1.55;0.70;;;26.70;58.60;;;;;;5079722;28;20257;-85
2023/03/22 10:14:16;;;;;;;0.47;0.47;;;27.10;56.10;;;;;;5079976;28;20183;-85
2023/03/22 10:16:44;;;;;;;0.63;0.60;;;27.80;55.30;;;;;;5081942;28;20260;-84
2023/03/22 10:19:19;;;;;;;0.70;0.50;;;27.40;53.70;;;;;;5081329;28;20210;-84
2023/03/22 10:21:47;;;;;;;0.90;0.50;;;27.10;55.30;;;;;;5078602;28;20210;-85
2023/03/22 10:24:18;;;;;;;0.45;0.45;;;26.80;55.80;;;;;;5078290;28;20671;-85
2023/03/22 10:26:47;;;;;;;0.93;0.50;;;27.20;55.10;;;;;;5078282;28;20218;-84
2023/03/22 10:29:23;;;;;;;0.57;0.50;;;28.10;53.90;;;;;;5077904;28;20234;-84
2023/03/22 10:31:50;;;;;;;0.40;0.40;;;28.60;52.20;;;;;;5077736;28;20549;-84
2023/03/22 10:34:21;;;;;;;1.00;0.85;;;29.00;52.10;;;;;;5077668;28;20209;-84
2023/03/22 10:36:51;;;;;;;0.90;0.50;;;29.20;50.90;;;;;;5080116;28;20210;-83
2023/03/22 10:39:29;;;;;;;0.50;0.50;;;28.60;51.00;;;;;;5077602;28;20223;-84
2023/03/22 10:41:59;;;;;;;0.60;0.60;;;28.30;51.90;;;;;;5077066;28;20302;-84
2023/03/22 10:44:33;;;;;;;0.40;0.40;;;28.40;52.60;;;;;;5077295;28;20206;-84
2023/03/22 10:47:06;;;;;;;0.50;0.50;;;29.30;51.00;;;;;;5078083;28;20194;-83
2023/03/22 10:49:38;;;;;;;0.60;0.60;;;30.70;50.00;;;;;;5076685;28;20274;-84
2023/03/22 10:52:17;;;;;;;0.50;0.50;;;30.90;46.70;;;;;;5077263;28;20558;-83
2023/03/22 10:54:44;;;;;;;0.50;0.40;;;31.10;45.30;;;;;;5077714;28;20207;-84
2023/03/22 10:57:10;;;;;;;0.55;0.55;;;31.70;44.20;;;;;;5077643;28;20199;-84
2023/03/22 10:59:51;;;;;;;0.50;0.40;;;31.60;44.80;;;;;;5078139;28;20222;-84
2023/03/22 11:02:45;;;;;;;0.43;0.43;;;31.30;43.70;;;;;;5076000;28;20693;-84
2023/03/22 11:11:25;;;;;;;0.40;0.40;;;30.10;44.80;;;;;;5014461;28;20299;-85
2023/03/22 11:14:18;;;;;;;0.50;0.50;;;29.00;45.90;;;;;;5016284;28;20197;-84
2023/03/22 11:17:01;;;;;;;0.60;0.47;;;27.80;47.20;;;;;;5076804;28;20616;-84
2023/03/22 11:19:39;;;;;;;0.40;0.40;;;26.20;47.70;;;;;;5076086;28;20673;-84
2023/03/22 11:22:24;;;;;;;0.43;0.40;;;25.30;49.90;;;;;;5076364;28;20246;-84
2023/03/22 11:25:20;;;;;;;0.50;0.40;;;24.90;49.30;;;;;;5077915;28;20206;-84
2023/03/22 11:28:18;;;;;;;0.40;0.40;;;24.10;49.20;;;;;;5071388;28;20289;-84
2023/03/22 11:31:00;;;;;;;0.50;0.40;;;23.90;50.30;;;;;;5076969;28;20210;-84
2023/03/22 11:33:47;;;;;;;0.50;0.40;;;23.40;49.40;;;;;;5083414;28;20191;-86
2023/03/22 11:39:42;;;;;;;0.40;0.40;;;22.80;50.70;;;;;;5079677;28;20268;-86
2023/03/22 11:42:18;;;;;;;0.40;0.40;;;22.50;51.30;;;;;;5083051;28;20215;-87
2023/03/22 11:44:45;;;;;;;2.70;0.60;;;22.30;51.10;;;;;;5082441;28;20905;-86
2023/03/22 11:47:13;;;;;;;0.40;0.30;;;21.90;51.70;;;;;;5080807;28;20453;-87
2023/03/22 11:49:45;;;;;;;0.30;0.30;;;21.70;53.00;;;;;;5081550;28;20489;-88
2023/03/22 11:52:17;;;;;;;0.30;0.30;;;21.50;53.50;;;;;;5085471;28;20436;-89
2023/03/22 11:54:45;;;;;;;0.60;0.60;;;21.30;53.20;;;;;;5085339;28;20433;-89
2023/03/22 11:57:15;;;;;;;0.40;0.40;;;21.20;53.50;;;;;;5083878;28;20452;-89
2023/03/22 11:59:48;;;;;;;0.60;0.60;;;21.00;54.30;;;;;;5084577;28;20461;-89
2023/03/22 12:02:20;;;;;;;0.50;0.50;;;21.00;55.50;;;;;;5081973;28;20469;-89
2023/03/22 12:04:52;;;;;;;0.50;0.40;;;20.90;56.50;;;;;;5082185;28;20511;-89
2023/03/22 12:07:23;;;;;;;0.70;0.43;;;21.00;56.90;;;;;;5081809;28;20429;-89
2023/03/22 12:09:55;;;;;;;0.40;0.40;;;20.90;56.90;;;;;;5080673;28;20473;-88
2023/03/22 12:12:27;;;;;;;0.40;0.30;;;21.00;56.20;;;;;;5081160;28;20426;-89
2023/03/22 12:14:59;;;;;;;0.90;0.50;;;21.00;55.60;;;;;;5081363;28;20437;-89
2023/03/22 12:17:33;;;;;;;0.30;0.30;;;20.90;55.50;;;;;;5082167;28;20445;-89
2023/03/22 12:20:11;;;;;;;0.40;0.37;;;20.70;55.00;;;;;;5082395;28;20474;-90
2023/03/22 12:22:44;;;;;;;0.40;0.40;;;20.70;57.00;;;;;;5082047;28;20563;-89
2023/03/22 12:25:14;;;;;;;0.63;0.63;;;20.60;57.30;;;;;;5083150;28;20439;-89
2023/03/22 12:27:45;;;;;;;1.60;0.50;;;20.70;58.30;;;;;;5079697;28;20440;-89
2023/03/22 12:30:16;;;;;;;0.50;0.30;;;20.70;57.30;;;;;;5079788;28;20468;-90
2023/03/22 12:32:47;;;;;;;3.03;0.70;;;20.50;57.30;;;;;;5077651;28;20472;-89
2023/03/22 12:35:20;;;;;;;0.50;0.50;;;20.50;58.20;;;;;;5079105;28;20429;-89
2023/03/22 12:37:49;;;;;;;0.40;0.40;;;20.50;59.00;;;;;;5079033;28;20413;-89
2023/03/22 12:40:22;;;;;;;4.20;0.50;;;20.50;58.60;;;;;;5078871;28;20487;-89
2023/03/22 12:42:56;;;;;;;1.03;0.40;;;20.50;56.70;;;;;;5077789;28;20465;-86
2023/03/22 12:45:26;;;;;;;0.40;0.40;;;20.60;58.80;;;;;;5075695;28;20437;-86
2023/03/22 12:47:59;;;;;;;0.40;0.40;;;20.50;57.90;;;;;;5075526;28;20456;-86
2023/03/22 12:50:33;;;;;;;0.50;0.50;;;20.50;56.70;;;;;;5075882;28;20477;-87
2023/03/22 12:53:03;;;;;;;0.60;0.53;;;20.50;56.60;;;;;;5076757;28;20430;-86
2023/03/22 12:55:32;;;;;;;0.40;0.40;;;20.30;55.10;;;;;;5077355;28;20451;-85
2023/03/22 12:58:00;;;;;;;0.50;0.40;;;20.20;56.10;;;;;;5075617;28;20430;-85
2023/03/22 13:00:32;;;;;;;0.50;0.40;;;20.10;56.20;;;;;;5076018;28;20463;-86
2023/03/22 13:03:02;;;;;;;0.40;0.40;;;20.00;57.00;;;;;;5075330;28;21074;-86
2023/03/22 13:05:35;;;;;;;0.40;0.30;;;19.80;57.10;;;;;;5076150;28;20433;-85
2023/03/22 13:08:04;;;;;;;0.30;0.30;;;19.70;57.20;;;;;;5075487;28;20509;-86
2023/03/22 13:11:00;;;;;;;0.40;0.40;;;19.50;55.50;;;;;;5075384;28;21007;-85
2023/03/22 13:13:44;;;;;;;0.30;0.30;;;19.30;56.80;;;;;;5075519;28;20429;-86
2023/03/22 13:16:18;;;;;;;0.40;0.40;;;19.20;55.40;;;;;;5075152;28;20437;-85
2023/03/22 13:19:01;;;;;;;0.70;0.47;;;19.00;55.30;;;;;;5075556;28;20519;-85